sensor_id;sensor_type;location;lat;lon;timestamp;P1;durP1;ratioP1;P2;durP2;ratioP2
33840;SDS011;20142;28.494;-16.312;2024-03-23T00:55:08;21.40;;;10.52;;
33840;SDS011;20142;28.494;-16.312;2024-03-23T01:00:10;24.95;;;11.50;;
33840;SDS011;20142;28.494;-16.312;2024-03-23T01:05:13;29.35;;;12.02;;
33840;SDS011;20142;28.494;-16.312;2024-03-23T01:10:14;24.25;;;11.82;;
33840;SDS011;20142;28.494;-16.312;2024-03-23T01:15:16;25.02;;;12.88;;
33840;SDS011;20142;28.494;-16.312;2024-03-23T01:20:18;22.27;;;12.45;;
33840;SDS011;20142;28.494;-16.312;2024-03-23T01:25:20;21.98;;;10.95;;
33840;SDS011;20142;28.494;-16.312;2024-03-23T01:30:21;22.02;;;10.27;;
33840;SDS011;20142;28.494;-16.312;2024-03-23T01:35:23;17.35;;;8.63;;
33840;SDS011;20142;28.494;-16.312;2024-03-23T01:40:25;16.50;;;8.18;;
33840;SDS011;20142;28.494;-16.312;2024-03-23T01:45:28;19.58;;;8.52;;
33840;SDS011;20142;28.494;-16.312;2024-03-23T01:50:31;13.73;;;7.10;;
33840;SDS011;20142;28.494;-16.312;2024-03-23T01:55:36;13.32;;;7.10;;
33840;SDS011;20142;28.494;-16.312;2024-03-23T02:00:39;17.98;;;7.32;;
33840;SDS011;20142;28.494;-16.312;2024-03-23T02:05:41;18.15;;;6.80;;
33840;SDS011;20142;28.494;-16.312;2024-03-23T02:10:43;14.45;;;7.18;;
33840;SDS011;20142;28.494;-16.312;2024-03-23T02:15:45;14.95;;;7.00;;
33840;SDS011;20142;28.494;-16.312;2024-03-23T02:20:47;22.25;;;8.60;;
33840;SDS011;20142;28.494;-16.312;2024-03-23T02:25:48;15.52;;;7.68;;
33840;SDS011;20142;28.494;-16.312;2024-03-23T02:30:50;15.65;;;7.45;;
33840;SDS011;20142;28.494;-16.312;2024-03-23T02:35:55;25.42;;;8.52;;
33840;SDS011;20142;28.494;-16.312;2024-03-23T02:41:04;17.58;;;7.57;;
33840;SDS011;20142;28.494;-16.312;2024-03-23T02:46:06;14.02;;;6.78;;
33840;SDS011;20142;28.494;-16.312;2024-03-23T02:51:08;20.85;;;8.18;;
33840;SDS011;20142;28.494;-16.312;2024-03-23T02:56:10;19.58;;;7.55;;
33840;SDS011;20142;28.494;-16.312;2024-03-23T03:01:16;15.43;;;6.82;;
33840;SDS011;20142;28.494;-16.312;2024-03-23T03:06:27;11.95;;;6.25;;
33840;SDS011;20142;28.494;-16.312;2024-03-23T03:11:29;12.05;;;5.47;;
33840;SDS011;20142;28.494;-16.312;2024-03-23T03:16:30;11.88;;;4.57;;
33840;SDS011;20142;28.494;-16.312;2024-03-23T03:21:32;12.80;;;4.93;;
33840;SDS011;20142;28.494;-16.312;2024-03-23T03:26:34;8.45;;;4.18;;
33840;SDS011;20142;28.494;-16.312;2024-03-23T03:31:36;12.07;;;5.50;;
33840;SDS011;20142;28.494;-16.312;2024-03-23T03:36:38;10.15;;;4.88;;
33840;SDS011;20142;28.494;-16.312;2024-03-23T03:41:39;14.82;;;4.93;;
33840;SDS011;20142;28.494;-16.312;2024-03-23T03:46:41;10.75;;;4.88;;
33840;SDS011;20142;28.494;-16.312;2024-03-23T03:51:43;10.20;;;4.22;;
33840;SDS011;20142;28.494;-16.312;2024-03-23T03:56:45;11.82;;;4.63;;
33840;SDS011;20142;28.494;-16.312;2024-03-23T04:01:47;10.75;;;3.97;;
33840;SDS011;20142;28.494;-16.312;2024-03-23T04:06:48;12.70;;;4.40;;
33840;SDS011;20142;28.494;-16.312;2024-03-23T04:11:50;7.25;;;3.47;;
33840;SDS011;20142;28.494;-16.312;2024-03-23T04:16:52;7.10;;;2.95;;
33840;SDS011;20142;28.494;-16.312;2024-03-23T04:21:54;10.20;;;3.50;;
33840;SDS011;20142;28.494;-16.312;2024-03-23T04:26:55;4.30;;;2.83;;
33840;SDS011;20142;28.494;-16.312;2024-03-23T04:31:57;10.93;;;3.40;;
33840;SDS011;20142;28.494;-16.312;2024-03-23T04:36:59;8.30;;;3.15;;
33840;SDS011;20142;28.494;-16.312;2024-03-23T04:42:00;7.22;;;2.58;;
33840;SDS011;20142;28.494;-16.312;2024-03-23T04:47:03;6.13;;;3.10;;
33840;SDS011;20142;28.494;-16.312;2024-03-23T04:52:06;9.98;;;2.97;;
33840;SDS011;20142;28.494;-16.312;2024-03-23T04:57:08;7.88;;;3.10;;
33840;SDS011;20142;28.494;-16.312;2024-03-23T05:02:09;7.18;;;2.60;;
33840;SDS011;20142;28.494;-16.312;2024-03-23T05:07:11;9.13;;;2.70;;
33840;SDS011;20142;28.494;-16.312;2024-03-23T05:12:13;7.68;;;3.20;;
33840;SDS011;20142;28.494;-16.312;2024-03-23T05:17:14;12.25;;;2.85;;
33840;SDS011;20142;28.494;-16.312;2024-03-23T05:22:16;7.68;;;3.15;;
33840;SDS011;20142;28.494;-16.312;2024-03-23T05:27:19;6.95;;;3.00;;
33840;SDS011;20142;28.494;-16.312;2024-03-23T05:32:21;7.72;;;3.10;;
33840;SDS011;20142;28.494;-16.312;2024-03-23T05:37:23;14.98;;;2.72;;
33840;SDS011;20142;28.494;-16.312;2024-03-23T05:42:24;8.02;;;2.78;;
33840;SDS011;20142;28.494;-16.312;2024-03-23T05:47:27;8.85;;;2.75;;
33840;SDS011;20142;28.494;-16.312;2024-03-23T05:52:29;6.78;;;2.60;;
33840;SDS011;20142;28.494;-16.312;2024-03-23T05:57:31;8.55;;;2.40;;
33840;SDS011;20142;28.494;-16.312;2024-03-23T06:02:33;10.68;;;2.80;;
33840;SDS011;20142;28.494;-16.312;2024-03-23T06:07:34;6.60;;;2.90;;
33840;SDS011;20142;28.494;-16.312;2024-03-23T06:12:36;7.22;;;3.00;;
33840;SDS011;20142;28.494;-16.312;2024-03-23T06:17:38;9.25;;;3.10;;
33840;SDS011;20142;28.494;-16.312;2024-03-23T06:22:40;5.75;;;2.95;;
33840;SDS011;20142;28.494;-16.312;2024-03-23T06:27:42;12.48;;;3.20;;
33840;SDS011;20142;28.494;-16.312;2024-03-23T06:32:43;11.70;;;4.00;;
33840;SDS011;20142;28.494;-16.312;2024-03-23T06:37:45;15.95;;;3.78;;
33840;SDS011;20142;28.494;-16.312;2024-03-23T06:42:47;13.13;;;3.28;;
33840;SDS011;20142;28.494;-16.312;2024-03-23T06:47:49;12.73;;;3.75;;
33840;SDS011;20142;28.494;-16.312;2024-03-23T06:52:52;14.38;;;3.45;;
33840;SDS011;20142;28.494;-16.312;2024-03-23T06:57:53;10.70;;;4.03;;
33840;SDS011;20142;28.494;-16.312;2024-03-23T07:02:55;14.30;;;4.65;;
33840;SDS011;20142;28.494;-16.312;2024-03-23T07:07:57;13.50;;;4.25;;
33840;SDS011;20142;28.494;-16.312;2024-03-23T07:12:58;16.73;;;4.60;;
33840;SDS011;20142;28.494;-16.312;2024-03-23T07:18:00;19.40;;;5.00;;
33840;SDS011;20142;28.494;-16.312;2024-03-23T07:23:02;12.90;;;4.57;;
33840;SDS011;20142;28.494;-16.312;2024-03-23T07:28:04;19.15;;;4.63;;
33840;SDS011;20142;28.494;-16.312;2024-03-23T07:33:05;14.65;;;4.13;;
33840;SDS011;20142;28.494;-16.312;2024-03-23T07:38:07;11.07;;;4.03;;
33840;SDS011;20142;28.494;-16.312;2024-03-23T07:43:09;13.25;;;4.13;;
33840;SDS011;20142;28.494;-16.312;2024-03-23T07:48:10;11.88;;;3.92;;
33840;SDS011;20142;28.494;-16.312;2024-03-23T07:53:13;15.48;;;5.00;;
33840;SDS011;20142;28.494;-16.312;2024-03-23T07:58:14;13.10;;;4.72;;
33840;SDS011;20142;28.494;-16.312;2024-03-23T08:03:16;19.23;;;4.38;;
33840;SDS011;20142;28.494;-16.312;2024-03-23T08:08:18;15.05;;;4.10;;
33840;SDS011;20142;28.494;-16.312;2024-03-23T08:13:20;15.88;;;4.57;;
33840;SDS011;20142;28.494;-16.312;2024-03-23T08:18:22;12.73;;;4.38;;
33840;SDS011;20142;28.494;-16.312;2024-03-23T08:23:24;13.60;;;4.88;;
33840;SDS011;20142;28.494;-16.312;2024-03-23T08:28:28;14.48;;;5.10;;
33840;SDS011;20142;28.494;-16.312;2024-03-23T08:33:30;10.77;;;3.83;;
33840;SDS011;20142;28.494;-16.312;2024-03-23T08:38:32;10.18;;;3.85;;
33840;SDS011;20142;28.494;-16.312;2024-03-23T08:43:40;9.40;;;2.20;;
33840;SDS011;20142;28.494;-16.312;2024-03-23T08:48:43;8.67;;;2.90;;
33840;SDS011;20142;28.494;-16.312;2024-03-23T08:53:49;8.55;;;2.15;;
33840;SDS011;20142;28.494;-16.312;2024-03-23T08:58:51;4.35;;;1.90;;
33840;SDS011;20142;28.494;-16.312;2024-03-23T09:03:52;4.18;;;1.58;;
33840;SDS011;20142;28.494;-16.312;2024-03-23T09:08:54;7.38;;;1.77;;
33840;SDS011;20142;28.494;-16.312;2024-03-23T09:13:56;3.47;;;2.00;;
33840;SDS011;20142;28.494;-16.312;2024-03-23T09:18:57;5.22;;;1.92;;
33840;SDS011;20142;28.494;-16.312;2024-03-23T09:23:59;6.15;;;1.95;;
33840;SDS011;20142;28.494;-16.312;2024-03-23T09:29:01;6.30;;;1.67;;
33840;SDS011;20142;28.494;-16.312;2024-03-23T09:34:03;5.72;;;1.70;;
33840;SDS011;20142;28.494;-16.312;2024-03-23T09:39:06;5.75;;;2.00;;
33840;SDS011;20142;28.494;-16.312;2024-03-23T09:44:10;8.40;;;3.10;;
33840;SDS011;20142;28.494;-16.312;2024-03-23T09:49:11;5.68;;;3.40;;
33840;SDS011;20142;28.494;-16.312;2024-03-23T09:54:13;10.55;;;3.95;;
33840;SDS011;20142;28.494;-16.312;2024-03-23T09:59:15;9.18;;;3.60;;
33840;SDS011;20142;28.494;-16.312;2024-03-23T10:09:41;6.25;;;3.78;;
33840;SDS011;20142;28.494;-16.312;2024-03-23T10:14:43;7.45;;;4.55;;
33840;SDS011;20142;28.494;-16.312;2024-03-23T10:19:46;12.60;;;5.18;;
33840;SDS011;20142;28.494;-16.312;2024-03-23T10:24:50;12.20;;;5.13;;
33840;SDS011;20142;28.494;-16.312;2024-03-23T10:29:52;15.77;;;5.10;;
33840;SDS011;20142;28.494;-16.312;2024-03-23T10:35:14;12.00;;;5.18;;
33840;SDS011;20142;28.494;-16.312;2024-03-23T10:40:23;11.20;;;5.32;;
33840;SDS011;20142;28.494;-16.312;2024-03-23T10:45:25;12.68;;;5.65;;
33840;SDS011;20142;28.494;-16.312;2024-03-23T10:50:28;10.43;;;4.88;;
33840;SDS011;20142;28.494;-16.312;2024-03-23T10:55:30;13.38;;;5.00;;
33840;SDS011;20142;28.494;-16.312;2024-03-23T11:00:33;11.95;;;4.93;;
33840;SDS011;20142;28.494;-16.312;2024-03-23T11:05:34;12.98;;;7.05;;
33840;SDS011;20142;28.494;-16.312;2024-03-23T11:10:36;15.98;;;6.07;;
33840;SDS011;20142;28.494;-16.312;2024-03-23T11:15:38;10.05;;;4.72;;
33840;SDS011;20142;28.494;-16.312;2024-03-23T11:20:40;15.15;;;5.55;;
33840;SDS011;20142;28.494;-16.312;2024-03-23T11:25:42;13.32;;;5.20;;
33840;SDS011;20142;28.494;-16.312;2024-03-23T11:30:43;9.32;;;4.18;;
33840;SDS011;20142;28.494;-16.312;2024-03-23T11:35:45;9.20;;;5.68;;
33840;SDS011;20142;28.494;-16.312;2024-03-23T11:40:48;9.30;;;5.07;;
33840;SDS011;20142;28.494;-16.312;2024-03-23T11:45:51;11.10;;;5.70;;
33840;SDS011;20142;28.494;-16.312;2024-03-23T11:50:58;19.40;;;8.65;;
33840;SDS011;20142;28.494;-16.312;2024-03-23T11:55:59;14.30;;;7.30;;
33840;SDS011;20142;28.494;-16.312;2024-03-23T12:01:02;13.38;;;6.45;;
33840;SDS011;20142;28.494;-16.312;2024-03-23T12:06:05;14.40;;;6.78;;
33840;SDS011;20142;28.494;-16.312;2024-03-23T12:11:09;9.90;;;5.45;;
33840;SDS011;20142;28.494;-16.312;2024-03-23T12:16:16;12.07;;;7.20;;
33840;SDS011;20142;28.494;-16.312;2024-03-23T12:21:20;12.00;;;6.05;;
33840;SDS011;20142;28.494;-16.312;2024-03-23T12:26:23;9.45;;;6.00;;
33840;SDS011;20142;28.494;-16.312;2024-03-23T12:31:25;13.05;;;7.00;;
33840;SDS011;20142;28.494;-16.312;2024-03-23T12:36:27;13.73;;;7.20;;
33840;SDS011;20142;28.494;-16.312;2024-03-23T12:41:28;3.92;;;2.10;;
33840;SDS011;20142;28.494;-16.312;2024-03-23T12:46:30;5.72;;;1.92;;
33840;SDS011;20142;28.494;-16.312;2024-03-23T12:51:32;3.63;;;1.48;;
33840;SDS011;20142;28.494;-16.312;2024-03-23T12:56:34;3.65;;;1.88;;
33840;SDS011;20142;28.494;-16.312;2024-03-23T13:01:36;3.88;;;1.70;;
33840;SDS011;20142;28.494;-16.312;2024-03-23T13:06:38;1.65;;;1.30;;
33840;SDS011;20142;28.494;-16.312;2024-03-23T13:11:40;4.10;;;1.80;;
33840;SDS011;20142;28.494;-16.312;2024-03-23T13:16:42;5.75;;;3.00;;
33840;SDS011;20142;28.494;-16.312;2024-03-23T13:21:45;7.90;;;3.88;;
33840;SDS011;20142;28.494;-16.312;2024-03-23T13:26:46;6.28;;;2.58;;
33840;SDS011;20142;28.494;-16.312;2024-03-23T13:31:48;6.07;;;2.10;;
33840;SDS011;20142;28.494;-16.312;2024-03-23T13:36:51;2.72;;;1.23;;
33840;SDS011;20142;28.494;-16.312;2024-03-23T13:41:53;2.42;;;0.90;;
33840;SDS011;20142;28.494;-16.312;2024-03-23T13:46:58;3.35;;;0.95;;
33840;SDS011;20142;28.494;-16.312;2024-03-23T13:52:00;3.15;;;0.73;;
33840;SDS011;20142;28.494;-16.312;2024-03-23T13:57:01;1.70;;;1.00;;
33840;SDS011;20142;28.494;-16.312;2024-03-23T14:02:03;5.00;;;1.90;;
33840;SDS011;20142;28.494;-16.312;2024-03-23T14:07:05;4.50;;;1.70;;
33840;SDS011;20142;28.494;-16.312;2024-03-23T14:12:08;7.00;;;1.70;;
33840;SDS011;20142;28.494;-16.312;2024-03-23T14:17:10;2.50;;;1.40;;
33840;SDS011;20142;28.494;-16.312;2024-03-23T14:22:15;4.50;;;1.13;;
33840;SDS011;20142;28.494;-16.312;2024-03-23T14:27:20;3.30;;;1.90;;
33840;SDS011;20142;28.494;-16.312;2024-03-23T14:32:22;3.85;;;2.33;;
33840;SDS011;20142;28.494;-16.312;2024-03-23T14:37:24;3.17;;;1.77;;
33840;SDS011;20142;28.494;-16.312;2024-03-23T14:42:26;3.47;;;1.50;;
33840;SDS011;20142;28.494;-16.312;2024-03-23T14:47:28;2.05;;;0.90;;
33840;SDS011;20142;28.494;-16.312;2024-03-23T14:52:30;2.33;;;0.68;;
33840;SDS011;20142;28.494;-16.312;2024-03-23T14:57:31;4.43;;;1.00;;
33840;SDS011;20142;28.494;-16.312;2024-03-23T15:02:34;4.93;;;0.88;;
33840;SDS011;20142;28.494;-16.312;2024-03-23T15:07:36;2.55;;;0.88;;
33840;SDS011;20142;28.494;-16.312;2024-03-23T15:12:40;2.63;;;0.95;;
33840;SDS011;20142;28.494;-16.312;2024-03-23T15:17:42;2.88;;;1.00;;
33840;SDS011;20142;28.494;-16.312;2024-03-23T15:22:45;2.83;;;0.88;;
33840;SDS011;20142;28.494;-16.312;2024-03-23T15:27:46;6.68;;;1.20;;
33840;SDS011;20142;28.494;-16.312;2024-03-23T15:32:48;7.75;;;2.08;;
33840;SDS011;20142;28.494;-16.312;2024-03-23T15:37:50;3.80;;;1.20;;
33840;SDS011;20142;28.494;-16.312;2024-03-23T15:42:52;3.30;;;1.45;;
33840;SDS011;20142;28.494;-16.312;2024-03-23T15:47:53;6.53;;;2.13;;
33840;SDS011;20142;28.494;-16.312;2024-03-23T15:52:55;10.25;;;2.40;;
33840;SDS011;20142;28.494;-16.312;2024-03-23T15:57:57;10.05;;;2.50;;
33840;SDS011;20142;28.494;-16.312;2024-03-23T16:02:59;7.78;;;1.95;;
33840;SDS011;20142;28.494;-16.312;2024-03-23T16:08:00;10.80;;;3.47;;
33840;SDS011;20142;28.494;-16.312;2024-03-23T16:13:02;9.10;;;2.92;;
33840;SDS011;20142;28.494;-16.312;2024-03-23T16:18:04;9.05;;;2.20;;
33840;SDS011;20142;28.494;-16.312;2024-03-23T16:23:06;5.90;;;1.77;;
33840;SDS011;20142;28.494;-16.312;2024-03-23T16:28:08;8.52;;;1.70;;
33840;SDS011;20142;28.494;-16.312;2024-03-23T16:33:10;7.72;;;1.83;;
33840;SDS011;20142;28.494;-16.312;2024-03-23T16:38:11;5.28;;;1.73;;
33840;SDS011;20142;28.494;-16.312;2024-03-23T16:43:13;6.95;;;2.17;;
33840;SDS011;20142;28.494;-16.312;2024-03-23T16:48:15;4.95;;;1.50;;
33840;SDS011;20142;28.494;-16.312;2024-03-23T16:53:17;7.00;;;1.52;;
33840;SDS011;20142;28.494;-16.312;2024-03-23T16:58:19;5.43;;;1.30;;
33840;SDS011;20142;28.494;-16.312;2024-03-23T17:03:21;9.52;;;1.65;;
33840;SDS011;20142;28.494;-16.312;2024-03-23T17:08:24;5.25;;;1.30;;
33840;SDS011;20142;28.494;-16.312;2024-03-23T17:13:26;4.70;;;1.23;;
33840;SDS011;20142;28.494;-16.312;2024-03-23T17:18:33;5.72;;;1.48;;
33840;SDS011;20142;28.494;-16.312;2024-03-23T17:23:35;5.75;;;1.83;;
33840;SDS011;20142;28.494;-16.312;2024-03-23T17:28:37;10.48;;;1.70;;
33840;SDS011;20142;28.494;-16.312;2024-03-23T17:33:38;6.68;;;1.30;;
33840;SDS011;20142;28.494;-16.312;2024-03-23T17:38:40;6.30;;;1.17;;
33840;SDS011;20142;28.494;-16.312;2024-03-23T17:43:44;5.57;;;1.27;;
33840;SDS011;20142;28.494;-16.312;2024-03-23T17:48:47;5.10;;;1.05;;
33840;SDS011;20142;28.494;-16.312;2024-03-23T17:53:49;4.32;;;1.08;;
33840;SDS011;20142;28.494;-16.312;2024-03-23T17:58:50;6.45;;;1.15;;
33840;SDS011;20142;28.494;-16.312;2024-03-23T18:03:52;5.32;;;1.38;;
33840;SDS011;20142;28.494;-16.312;2024-03-23T18:08:54;4.47;;;1.10;;
33840;SDS011;20142;28.494;-16.312;2024-03-23T18:13:56;4.07;;;1.20;;
33840;SDS011;20142;28.494;-16.312;2024-03-23T18:18:58;6.38;;;1.17;;
33840;SDS011;20142;28.494;-16.312;2024-03-23T18:24:00;3.75;;;1.17;;
33840;SDS011;20142;28.494;-16.312;2024-03-23T18:29:02;5.57;;;0.93;;
33840;SDS011;20142;28.494;-16.312;2024-03-23T18:34:04;7.75;;;1.30;;
33840;SDS011;20142;28.494;-16.312;2024-03-23T18:39:06;10.07;;;1.52;;
33840;SDS011;20142;28.494;-16.312;2024-03-23T18:44:08;9.07;;;1.60;;
33840;SDS011;20142;28.494;-16.312;2024-03-23T18:49:10;8.27;;;1.60;;
33840;SDS011;20142;28.494;-16.312;2024-03-23T18:54:12;6.22;;;1.33;;
33840;SDS011;20142;28.494;-16.312;2024-03-23T18:59:13;7.18;;;1.33;;
33840;SDS011;20142;28.494;-16.312;2024-03-23T19:04:15;9.48;;;1.50;;
33840;SDS011;20142;28.494;-16.312;2024-03-23T19:09:17;6.57;;;1.30;;
33840;SDS011;20142;28.494;-16.312;2024-03-23T19:14:19;5.25;;;1.25;;
33840;SDS011;20142;28.494;-16.312;2024-03-23T19:19:20;7.85;;;1.60;;
33840;SDS011;20142;28.494;-16.312;2024-03-23T19:24:22;6.18;;;1.05;;
33840;SDS011;20142;28.494;-16.312;2024-03-23T19:29:24;12.48;;;1.63;;
33840;SDS011;20142;28.494;-16.312;2024-03-23T19:34:26;8.40;;;1.58;;
33840;SDS011;20142;28.494;-16.312;2024-03-23T19:39:27;8.82;;;1.70;;
33840;SDS011;20142;28.494;-16.312;2024-03-23T19:44:29;8.50;;;1.60;;
33840;SDS011;20142;28.494;-16.312;2024-03-23T19:49:31;8.68;;;2.17;;
33840;SDS011;20142;28.494;-16.312;2024-03-23T19:54:32;8.45;;;2.15;;
33840;SDS011;20142;28.494;-16.312;2024-03-23T19:59:34;5.45;;;1.40;;
33840;SDS011;20142;28.494;-16.312;2024-03-23T20:04:36;11.30;;;2.50;;
33840;SDS011;20142;28.494;-16.312;2024-03-23T20:09:38;4.40;;;1.48;;
33840;SDS011;20142;28.494;-16.312;2024-03-23T20:14:39;11.10;;;2.30;;
33840;SDS011;20142;28.494;-16.312;2024-03-23T20:19:45;9.63;;;2.45;;
33840;SDS011;20142;28.494;-16.312;2024-03-23T20:24:47;11.45;;;1.70;;
33840;SDS011;20142;28.494;-16.312;2024-03-23T20:29:51;16.70;;;2.90;;
33840;SDS011;20142;28.494;-16.312;2024-03-23T20:34:53;8.80;;;1.50;;
33840;SDS011;20142;28.494;-16.312;2024-03-23T20:39:55;13.82;;;2.40;;
33840;SDS011;20142;28.494;-16.312;2024-03-23T20:44:56;7.63;;;1.92;;
33840;SDS011;20142;28.494;-16.312;2024-03-23T20:49:58;9.45;;;1.90;;
33840;SDS011;20142;28.494;-16.312;2024-03-23T20:55:01;14.02;;;2.35;;
33840;SDS011;20142;28.494;-16.312;2024-03-23T21:00:03;9.82;;;2.05;;
33840;SDS011;20142;28.494;-16.312;2024-03-23T21:05:08;7.70;;;1.90;;
33840;SDS011;20142;28.494;-16.312;2024-03-23T21:10:10;12.60;;;2.42;;
33840;SDS011;20142;28.494;-16.312;2024-03-23T21:15:12;11.48;;;2.38;;
33840;SDS011;20142;28.494;-16.312;2024-03-23T21:20:13;7.32;;;1.77;;
33840;SDS011;20142;28.494;-16.312;2024-03-23T21:25:15;13.52;;;3.00;;
33840;SDS011;20142;28.494;-16.312;2024-03-23T21:30:18;12.23;;;2.42;;
33840;SDS011;20142;28.494;-16.312;2024-03-23T21:35:20;16.17;;;3.13;;
33840;SDS011;20142;28.494;-16.312;2024-03-23T21:40:21;12.75;;;2.55;;
33840;SDS011;20142;28.494;-16.312;2024-03-23T21:45:23;8.57;;;2.13;;
33840;SDS011;20142;28.494;-16.312;2024-03-23T21:50:25;12.32;;;2.80;;
33840;SDS011;20142;28.494;-16.312;2024-03-23T21:55:26;14.40;;;2.47;;
33840;SDS011;20142;28.494;-16.312;2024-03-23T22:00:28;16.10;;;2.58;;
33840;SDS011;20142;28.494;-16.312;2024-03-23T22:05:30;11.98;;;1.83;;
33840;SDS011;20142;28.494;-16.312;2024-03-23T22:10:32;13.35;;;2.22;;
33840;SDS011;20142;28.494;-16.312;2024-03-23T22:15:35;11.88;;;2.15;;
33840;SDS011;20142;28.494;-16.312;2024-03-23T22:20:36;9.38;;;2.67;;
33840;SDS011;20142;28.494;-16.312;2024-03-23T22:25:47;23.55;;;2.60;;
33840;SDS011;20142;28.494;-16.312;2024-03-23T22:30:56;8.77;;;2.47;;
33840;SDS011;20142;28.494;-16.312;2024-03-23T22:35:59;11.43;;;2.30;;
33840;SDS011;20142;28.494;-16.312;2024-03-23T22:41:04;9.75;;;2.50;;
33840;SDS011;20142;28.494;-16.312;2024-03-23T22:46:06;12.65;;;2.45;;
33840;SDS011;20142;28.494;-16.312;2024-03-23T22:51:08;13.15;;;2.60;;
33840;SDS011;20142;28.494;-16.312;2024-03-23T22:56:13;9.73;;;3.13;;
33840;SDS011;20142;28.494;-16.312;2024-03-23T23:01:15;10.30;;;2.72;;
33840;SDS011;20142;28.494;-16.312;2024-03-23T23:06:18;10.80;;;3.13;;
33840;SDS011;20142;28.494;-16.312;2024-03-23T23:11:20;17.65;;;3.55;;
33840;SDS011;20142;28.494;-16.312;2024-03-23T23:16:23;10.43;;;3.38;;
33840;SDS011;20142;28.494;-16.312;2024-03-23T23:21:25;8.13;;;3.60;;
33840;SDS011;20142;28.494;-16.312;2024-03-23T23:26:27;13.80;;;3.38;;
33840;SDS011;20142;28.494;-16.312;2024-03-23T23:31:29;9.18;;;2.67;;
33840;SDS011;20142;28.494;-16.312;2024-03-23T23:36:30;8.52;;;2.75;;
33840;SDS011;20142;28.494;-16.312;2024-03-23T23:41:32;8.57;;;2.50;;
33840;SDS011;20142;28.494;-16.312;2024-03-23T23:46:34;9.85;;;2.55;;
33840;SDS011;20142;28.494;-16.312;2024-03-23T23:51:35;9.27;;;2.53;;
33840;SDS011;20142;28.494;-16.312;2024-03-23T23:56:37;9.32;;;2.70;;
